sensor_id;sensor_type;location;lat;lon;timestamp;pressure;altitude;pressure_sealevel;temperature;humidity
71638;BME280;59485;43.542;-5.676;2023-04-20T00:00:00;101148.41;;;12.75;100.00
71638;BME280;59485;43.542;-5.676;2023-04-20T00:02:25;101153.53;;;12.78;100.00
71638;BME280;59485;43.542;-5.676;2023-04-20T00:04:51;101127.84;;;12.71;100.00
71638;BME280;59485;43.542;-5.676;2023-04-20T00:07:17;101139.78;;;12.78;100.00
71638;BME280;59485;43.542;-5.676;2023-04-20T00:09:42;101129.34;;;12.74;100.00
71638;BME280;59485;43.542;-5.676;2023-04-20T00:12:08;101138.50;;;12.81;100.00
71638;BME280;59485;43.542;-5.676;2023-04-20T00:14:34;101137.66;;;12.81;100.00
71638;BME280;59485;43.542;-5.676;2023-04-20T00:17:00;101126.16;;;12.70;100.00
71638;BME280;59485;43.542;-5.676;2023-04-20T00:19:25;101114.50;;;12.68;100.00
71638;BME280;59485;43.542;-5.676;2023-04-20T00:21:53;101119.66;;;12.78;100.00
71638;BME280;59485;43.542;-5.676;2023-04-20T00:24:18;101112.66;;;12.75;100.00
71638;BME280;59485;43.542;-5.676;2023-04-20T00:26:44;101091.81;;;12.66;100.00
71638;BME280;59485;43.542;-5.676;2023-04-20T00:29:09;101098.72;;;12.77;100.00
71638;BME280;59485;43.542;-5.676;2023-04-20T00:31:35;101091.88;;;12.73;100.00
71638;BME280;59485;43.542;-5.676;2023-04-20T00:34:01;101088.94;;;12.74;100.00
71638;BME280;59485;43.542;-5.676;2023-04-20T00:36:26;101075.31;;;12.66;100.00
71638;BME280;59485;43.542;-5.676;2023-04-20T00:38:51;101076.03;;;12.75;100.00
71638;BME280;59485;43.542;-5.676;2023-04-20T00:41:17;101072.09;;;12.84;100.00
71638;BME280;59485;43.542;-5.676;2023-04-20T00:43:52;101076.09;;;12.82;100.00
71638;BME280;59485;43.542;-5.676;2023-04-20T00:46:21;101072.75;;;12.86;100.00
71638;BME280;59485;43.542;-5.676;2023-04-20T00:48:49;101069.94;;;12.79;100.00
71638;BME280;59485;43.542;-5.676;2023-04-20T00:51:15;101072.50;;;12.81;100.00
71638;BME280;59485;43.542;-5.676;2023-04-20T00:53:41;101074.84;;;12.84;100.00
71638;BME280;59485;43.542;-5.676;2023-04-20T00:56:08;101034.78;;;12.54;100.00
71638;BME280;59485;43.542;-5.676;2023-04-20T00:58:33;101061.25;;;12.76;100.00
71638;BME280;59485;43.542;-5.676;2023-04-20T01:00:59;101046.78;;;12.67;100.00
71638;BME280;59485;43.542;-5.676;2023-04-20T01:03:24;101031.47;;;12.58;100.00
71638;BME280;59485;43.542;-5.676;2023-04-20T01:05:50;101041.00;;;12.62;100.00
71638;BME280;59485;43.542;-5.676;2023-04-20T01:08:16;101046.06;;;12.59;100.00
71638;BME280;59485;43.542;-5.676;2023-04-20T01:10:41;101043.97;;;12.61;100.00
71638;BME280;59485;43.542;-5.676;2023-04-20T01:13:07;101029.94;;;12.56;100.00
71638;BME280;59485;43.542;-5.676;2023-04-20T01:15:32;101032.31;;;12.59;100.00
71638;BME280;59485;43.542;-5.676;2023-04-20T01:17:59;101018.22;;;12.47;100.00
71638;BME280;59485;43.542;-5.676;2023-04-20T01:20:25;101020.31;;;12.45;100.00
71638;BME280;59485;43.542;-5.676;2023-04-20T01:22:51;101020.41;;;12.52;100.00
71638;BME280;59485;43.542;-5.676;2023-04-20T01:25:19;101019.09;;;12.48;100.00
71638;BME280;59485;43.542;-5.676;2023-04-20T01:27:44;101006.50;;;12.38;100.00
71638;BME280;59485;43.542;-5.676;2023-04-20T01:30:11;101021.97;;;12.39;100.00
71638;BME280;59485;43.542;-5.676;2023-04-20T01:32:37;101022.34;;;12.36;100.00
71638;BME280;59485;43.542;-5.676;2023-04-20T01:35:03;101024.72;;;12.39;100.00
71638;BME280;59485;43.542;-5.676;2023-04-20T01:37:29;101025.88;;;12.30;100.00
71638;BME280;59485;43.542;-5.676;2023-04-20T01:39:55;101024.66;;;12.33;100.00
71638;BME280;59485;43.542;-5.676;2023-04-20T01:42:21;101022.66;;;12.27;100.00
71638;BME280;59485;43.542;-5.676;2023-04-20T01:44:47;101022.66;;;12.27;100.00
71638;BME280;59485;43.542;-5.676;2023-04-20T01:47:13;101009.84;;;12.13;100.00
71638;BME280;59485;43.542;-5.676;2023-04-20T01:49:38;101005.50;;;12.03;100.00
71638;BME280;59485;43.542;-5.676;2023-04-20T01:52:05;101035.00;;;12.31;100.00
71638;BME280;59485;43.542;-5.676;2023-04-20T01:54:30;101020.78;;;12.06;100.00
71638;BME280;59485;43.542;-5.676;2023-04-20T01:56:56;101036.66;;;12.11;100.00
71638;BME280;59485;43.542;-5.676;2023-04-20T01:59:22;101022.97;;;11.96;100.00
71638;BME280;59485;43.542;-5.676;2023-04-20T02:01:47;101013.16;;;11.87;100.00
71638;BME280;59485;43.542;-5.676;2023-04-20T02:04:13;101023.75;;;11.90;100.00
71638;BME280;59485;43.542;-5.676;2023-04-20T02:06:39;101019.78;;;11.78;100.00
71638;BME280;59485;43.542;-5.676;2023-04-20T02:09:05;101007.00;;;11.70;100.00
71638;BME280;59485;43.542;-5.676;2023-04-20T02:11:30;101010.19;;;11.74;100.00
71638;BME280;59485;43.542;-5.676;2023-04-20T02:13:56;101005.66;;;11.66;100.00
71638;BME280;59485;43.542;-5.676;2023-04-20T02:16:22;101014.19;;;11.71;100.00
71638;BME280;59485;43.542;-5.676;2023-04-20T02:18:48;101009.00;;;11.61;100.00
71638;BME280;59485;43.542;-5.676;2023-04-20T02:21:13;101015.13;;;11.63;100.00
71638;BME280;59485;43.542;-5.676;2023-04-20T02:23:39;101010.78;;;11.54;100.00
71638;BME280;59485;43.542;-5.676;2023-04-20T02:26:05;101015.22;;;11.55;100.00
71638;BME280;59485;43.542;-5.676;2023-04-20T02:28:30;101008.63;;;11.50;100.00
71638;BME280;59485;43.542;-5.676;2023-04-20T02:30:56;101007.88;;;11.41;100.00
71638;BME280;59485;43.542;-5.676;2023-04-20T02:33:21;101021.78;;;11.40;100.00
71638;BME280;59485;43.542;-5.676;2023-04-20T02:35:47;101017.50;;;11.37;100.00
71638;BME280;59485;43.542;-5.676;2023-04-20T02:38:13;101019.13;;;11.32;100.00
71638;BME280;59485;43.542;-5.676;2023-04-20T02:40:39;101009.78;;;11.26;100.00
71638;BME280;59485;43.542;-5.676;2023-04-20T02:43:04;101022.72;;;11.32;100.00
71638;BME280;59485;43.542;-5.676;2023-04-20T02:45:31;101021.03;;;11.31;100.00
71638;BME280;59485;43.542;-5.676;2023-04-20T02:47:56;101022.16;;;11.37;100.00
71638;BME280;59485;43.542;-5.676;2023-04-20T02:50:23;101021.13;;;11.38;100.00
71638;BME280;59485;43.542;-5.676;2023-04-20T02:52:48;101012.88;;;11.38;100.00
71638;BME280;59485;43.542;-5.676;2023-04-20T02:55:14;101001.16;;;11.29;100.00
71638;BME280;59485;43.542;-5.676;2023-04-20T02:57:39;100983.47;;;11.17;100.00
71638;BME280;59485;43.542;-5.676;2023-04-20T03:00:05;101018.28;;;11.31;100.00
71638;BME280;59485;43.542;-5.676;2023-04-20T03:02:33;101017.06;;;11.34;100.00
71638;BME280;59485;43.542;-5.676;2023-04-20T03:04:58;101015.72;;;11.29;100.00
71638;BME280;59485;43.542;-5.676;2023-04-20T03:07:24;101023.41;;;11.34;100.00
71638;BME280;59485;43.542;-5.676;2023-04-20T03:09:50;101003.03;;;11.28;100.00
71638;BME280;59485;43.542;-5.676;2023-04-20T03:12:15;101011.56;;;11.34;100.00
71638;BME280;59485;43.542;-5.676;2023-04-20T03:14:42;100998.31;;;11.22;100.00
71638;BME280;59485;43.542;-5.676;2023-04-20T03:17:08;101005.16;;;11.26;100.00
71638;BME280;59485;43.542;-5.676;2023-04-20T03:19:34;101006.81;;;11.27;100.00
71638;BME280;59485;43.542;-5.676;2023-04-20T03:22:00;100999.72;;;11.18;100.00
71638;BME280;59485;43.542;-5.676;2023-04-20T03:24:25;100984.22;;;11.11;100.00
71638;BME280;59485;43.542;-5.676;2023-04-20T03:26:51;100994.91;;;11.20;100.00
71638;BME280;59485;43.542;-5.676;2023-04-20T03:29:16;100992.84;;;11.22;100.00
71638;BME280;59485;43.542;-5.676;2023-04-20T03:31:42;100979.28;;;11.21;100.00
71638;BME280;59485;43.542;-5.676;2023-04-20T03:34:07;100956.69;;;11.19;100.00
71638;BME280;59485;43.542;-5.676;2023-04-20T03:36:33;100976.00;;;11.25;100.00
71638;BME280;59485;43.542;-5.676;2023-04-20T03:38:58;100978.94;;;11.24;100.00
71638;BME280;59485;43.542;-5.676;2023-04-20T03:41:24;100962.75;;;11.14;100.00
71638;BME280;59485;43.542;-5.676;2023-04-20T03:43:49;100983.25;;;11.18;100.00
71638;BME280;59485;43.542;-5.676;2023-04-20T03:46:15;100978.94;;;11.09;100.00
71638;BME280;59485;43.542;-5.676;2023-04-20T03:48:41;100972.28;;;11.04;100.00
71638;BME280;59485;43.542;-5.676;2023-04-20T03:51:06;100965.00;;;10.96;100.00
71638;BME280;59485;43.542;-5.676;2023-04-20T03:53:32;100979.75;;;11.10;100.00
71638;BME280;59485;43.542;-5.676;2023-04-20T03:55:58;100971.53;;;11.10;100.00
71638;BME280;59485;43.542;-5.676;2023-04-20T03:58:23;100968.88;;;11.02;100.00
71638;BME280;59485;43.542;-5.676;2023-04-20T04:00:49;100973.06;;;10.98;100.00
71638;BME280;59485;43.542;-5.676;2023-04-20T04:03:14;100948.94;;;10.78;100.00
71638;BME280;59485;43.542;-5.676;2023-04-20T04:05:40;100960.66;;;10.87;100.00
71638;BME280;59485;43.542;-5.676;2023-04-20T04:08:06;100941.16;;;10.67;100.00
71638;BME280;59485;43.542;-5.676;2023-04-20T04:10:31;100955.72;;;10.68;100.00
71638;BME280;59485;43.542;-5.676;2023-04-20T04:12:57;100963.50;;;10.79;100.00
71638;BME280;59485;43.542;-5.676;2023-04-20T04:15:23;100954.78;;;10.75;100.00
71638;BME280;59485;43.542;-5.676;2023-04-20T04:17:48;100967.63;;;10.75;100.00
71638;BME280;59485;43.542;-5.676;2023-04-20T04:20:14;100968.03;;;10.72;100.00
71638;BME280;59485;43.542;-5.676;2023-04-20T04:22:40;100970.00;;;10.78;100.00
71638;BME280;59485;43.542;-5.676;2023-04-20T04:25:06;100961.69;;;10.71;100.00
71638;BME280;59485;43.542;-5.676;2023-04-20T04:27:32;100942.09;;;10.60;100.00
71638;BME280;59485;43.542;-5.676;2023-04-20T04:30:04;100959.75;;;10.57;100.00
71638;BME280;59485;43.542;-5.676;2023-04-20T04:32:30;100960.25;;;10.61;100.00
71638;BME280;59485;43.542;-5.676;2023-04-20T04:34:58;100964.50;;;10.63;100.00
71638;BME280;59485;43.542;-5.676;2023-04-20T04:37:25;100966.84;;;10.66;100.00
71638;BME280;59485;43.542;-5.676;2023-04-20T04:39:51;100945.94;;;10.50;100.00
71638;BME280;59485;43.542;-5.676;2023-04-20T04:42:16;100961.28;;;10.60;100.00
71638;BME280;59485;43.542;-5.676;2023-04-20T04:44:42;100947.94;;;10.57;100.00
71638;BME280;59485;43.542;-5.676;2023-04-20T04:47:08;100956.16;;;10.57;100.00
71638;BME280;59485;43.542;-5.676;2023-04-20T04:49:33;100957.22;;;10.56;100.00
71638;BME280;59485;43.542;-5.676;2023-04-20T04:52:00;100962.81;;;10.62;100.00
71638;BME280;59485;43.542;-5.676;2023-04-20T04:54:26;100974.63;;;10.63;100.00
71638;BME280;59485;43.542;-5.676;2023-04-20T04:56:52;100972.91;;;10.62;100.00
71638;BME280;59485;43.542;-5.676;2023-04-20T04:59:17;100967.63;;;10.60;100.00
71638;BME280;59485;43.542;-5.676;2023-04-20T05:01:43;100979.34;;;10.69;100.00
71638;BME280;59485;43.542;-5.676;2023-04-20T05:04:08;100980.22;;;10.69;100.00
71638;BME280;59485;43.542;-5.676;2023-04-20T05:06:33;100993.91;;;10.69;100.00
71638;BME280;59485;43.542;-5.676;2023-04-20T05:08:59;100997.19;;;10.65;100.00
71638;BME280;59485;43.542;-5.676;2023-04-20T05:11:28;100997.09;;;10.58;100.00
71638;BME280;59485;43.542;-5.676;2023-04-20T05:13:53;101006.28;;;10.65;100.00
71638;BME280;59485;43.542;-5.676;2023-04-20T05:16:19;100995.84;;;10.46;100.00
71638;BME280;59485;43.542;-5.676;2023-04-20T05:18:44;101003.69;;;10.49;100.00
71638;BME280;59485;43.542;-5.676;2023-04-20T05:21:11;101013.72;;;10.57;100.00
71638;BME280;59485;43.542;-5.676;2023-04-20T05:23:38;101014.47;;;10.50;100.00
71638;BME280;59485;43.542;-5.676;2023-04-20T05:26:04;101014.34;;;10.44;100.00
71638;BME280;59485;43.542;-5.676;2023-04-20T05:28:32;100994.63;;;10.26;100.00
71638;BME280;59485;43.542;-5.676;2023-04-20T05:30:58;101004.56;;;10.27;100.00
71638;BME280;59485;43.542;-5.676;2023-04-20T05:33:23;101033.78;;;10.34;100.00
71638;BME280;59485;43.542;-5.676;2023-04-20T05:35:49;101028.84;;;10.30;100.00
71638;BME280;59485;43.542;-5.676;2023-04-20T05:38:15;101037.44;;;10.27;100.00
71638;BME280;59485;43.542;-5.676;2023-04-20T05:40:41;101043.88;;;10.34;100.00
71638;BME280;59485;43.542;-5.676;2023-04-20T05:43:06;101041.66;;;10.37;100.00
71638;BME280;59485;43.542;-5.676;2023-04-20T05:45:33;101053.94;;;10.41;100.00
71638;BME280;59485;43.542;-5.676;2023-04-20T05:47:58;101051.25;;;10.33;100.00
71638;BME280;59485;43.542;-5.676;2023-04-20T05:50:25;101052.41;;;10.39;100.00
71638;BME280;59485;43.542;-5.676;2023-04-20T05:52:51;101047.78;;;10.39;100.00
71638;BME280;59485;43.542;-5.676;2023-04-20T05:55:17;101046.28;;;10.37;100.00
71638;BME280;59485;43.542;-5.676;2023-04-20T05:57:43;101055.47;;;10.44;100.00
71638;BME280;59485;43.542;-5.676;2023-04-20T06:00:15;101070.13;;;10.51;100.00
71638;BME280;59485;43.542;-5.676;2023-04-20T06:02:41;101066.38;;;10.52;100.00
71638;BME280;59485;43.542;-5.676;2023-04-20T06:05:07;101075.56;;;10.59;100.00
71638;BME280;59485;43.542;-5.676;2023-04-20T06:07:34;101071.78;;;10.60;100.00
71638;BME280;59485;43.542;-5.676;2023-04-20T06:10:00;101082.78;;;10.75;100.00
71638;BME280;59485;43.542;-5.676;2023-04-20T06:12:26;101043.69;;;10.58;100.00
71638;BME280;59485;43.542;-5.676;2023-04-20T06:14:54;101099.31;;;10.89;100.00
71638;BME280;59485;43.542;-5.676;2023-04-20T06:17:20;101093.25;;;10.94;100.00
71638;BME280;59485;43.542;-5.676;2023-04-20T06:19:45;101095.47;;;10.99;100.00
71638;BME280;59485;43.542;-5.676;2023-04-20T06:22:12;101081.41;;;11.16;100.00
71638;BME280;59485;43.542;-5.676;2023-04-20T06:24:37;101093.25;;;11.46;100.00
71638;BME280;59485;43.542;-5.676;2023-04-20T06:27:03;101083.28;;;11.45;100.00
71638;BME280;59485;43.542;-5.676;2023-04-20T06:29:29;101087.56;;;11.48;100.00
71638;BME280;59485;43.542;-5.676;2023-04-20T06:31:54;101110.41;;;11.63;100.00
71638;BME280;59485;43.542;-5.676;2023-04-20T06:34:22;101094.00;;;11.55;100.00
71638;BME280;59485;43.542;-5.676;2023-04-20T06:36:48;101119.00;;;11.60;100.00
71638;BME280;59485;43.542;-5.676;2023-04-20T06:39:15;101129.41;;;11.64;100.00
71638;BME280;59485;43.542;-5.676;2023-04-20T06:41:41;101129.16;;;11.59;100.00
71638;BME280;59485;43.542;-5.676;2023-04-20T06:44:09;101133.25;;;11.78;100.00
71638;BME280;59485;43.542;-5.676;2023-04-20T06:46:35;101138.72;;;11.93;100.00
71638;BME280;59485;43.542;-5.676;2023-04-20T06:49:01;101125.09;;;11.85;100.00
71638;BME280;59485;43.542;-5.676;2023-04-20T06:51:28;101146.97;;;11.93;100.00
71638;BME280;59485;43.542;-5.676;2023-04-20T06:53:54;101157.50;;;12.04;100.00
71638;BME280;59485;43.542;-5.676;2023-04-20T06:56:20;101162.41;;;12.09;100.00
71638;BME280;59485;43.542;-5.676;2023-04-20T06:58:46;101159.00;;;12.07;100.00
71638;BME280;59485;43.542;-5.676;2023-04-20T07:01:11;101160.63;;;12.16;100.00
71638;BME280;59485;43.542;-5.676;2023-04-20T07:03:37;101158.06;;;12.14;100.00
71638;BME280;59485;43.542;-5.676;2023-04-20T07:06:03;101158.50;;;12.18;100.00
71638;BME280;59485;43.542;-5.676;2023-04-20T07:08:29;101148.00;;;12.21;100.00
71638;BME280;59485;43.542;-5.676;2023-04-20T07:10:54;101141.16;;;12.17;100.00
71638;BME280;59485;43.542;-5.676;2023-04-20T07:13:20;101151.84;;;12.42;100.00
71638;BME280;59485;43.542;-5.676;2023-04-20T07:15:46;101157.16;;;12.43;100.00
71638;BME280;59485;43.542;-5.676;2023-04-20T07:18:11;101125.97;;;12.36;100.00
71638;BME280;59485;43.542;-5.676;2023-04-20T07:20:37;101155.91;;;12.46;100.00
71638;BME280;59485;43.542;-5.676;2023-04-20T07:23:02;101122.16;;;12.16;100.00
71638;BME280;59485;43.542;-5.676;2023-04-20T07:25:28;101170.84;;;12.58;100.00
71638;BME280;59485;43.542;-5.676;2023-04-20T07:27:55;101175.56;;;12.43;100.00
71638;BME280;59485;43.542;-5.676;2023-04-20T07:30:21;101174.41;;;12.52;100.00
71638;BME280;59485;43.542;-5.676;2023-04-20T07:32:47;101162.19;;;12.39;100.00
71638;BME280;59485;43.542;-5.676;2023-04-20T07:35:13;101171.13;;;12.63;100.00
71638;BME280;59485;43.542;-5.676;2023-04-20T07:37:39;101161.63;;;12.65;100.00
71638;BME280;59485;43.542;-5.676;2023-04-20T07:40:05;101164.25;;;12.73;100.00
71638;BME280;59485;43.542;-5.676;2023-04-20T07:42:31;101149.34;;;12.61;100.00
71638;BME280;59485;43.542;-5.676;2023-04-20T07:44:58;101152.84;;;12.55;100.00
71638;BME280;59485;43.542;-5.676;2023-04-20T07:47:24;101143.34;;;12.58;100.00
71638;BME280;59485;43.542;-5.676;2023-04-20T07:49:49;101148.06;;;12.64;100.00
71638;BME280;59485;43.542;-5.676;2023-04-20T07:52:15;101167.66;;;12.75;100.00
71638;BME280;59485;43.542;-5.676;2023-04-20T07:54:40;101166.88;;;12.82;100.00
71638;BME280;59485;43.542;-5.676;2023-04-20T07:57:06;101168.22;;;12.86;100.00
71638;BME280;59485;43.542;-5.676;2023-04-20T07:59:33;101167.28;;;13.00;100.00
71638;BME280;59485;43.542;-5.676;2023-04-20T08:02:00;101169.16;;;13.14;100.00
71638;BME280;59485;43.542;-5.676;2023-04-20T08:04:25;101152.66;;;12.99;100.00
71638;BME280;59485;43.542;-5.676;2023-04-20T08:06:51;101158.06;;;13.29;100.00
71638;BME280;59485;43.542;-5.676;2023-04-20T08:09:16;101152.66;;;13.14;100.00
71638;BME280;59485;43.542;-5.676;2023-04-20T08:11:42;101153.09;;;13.18;100.00
71638;BME280;59485;43.542;-5.676;2023-04-20T08:14:11;101171.28;;;13.40;100.00
71638;BME280;59485;43.542;-5.676;2023-04-20T08:16:36;101170.59;;;13.31;100.00
71638;BME280;59485;43.542;-5.676;2023-04-20T08:19:02;101176.72;;;13.33;100.00
71638;BME280;59485;43.542;-5.676;2023-04-20T08:21:35;101150.47;;;13.31;100.00
71638;BME280;59485;43.542;-5.676;2023-04-20T08:24:00;101174.72;;;13.42;100.00
71638;BME280;59485;43.542;-5.676;2023-04-20T08:26:26;101153.50;;;13.42;100.00
71638;BME280;59485;43.542;-5.676;2023-04-20T08:28:51;101164.31;;;13.44;100.00
71638;BME280;59485;43.542;-5.676;2023-04-20T08:31:17;101171.47;;;13.60;100.00
71638;BME280;59485;43.542;-5.676;2023-04-20T08:33:42;101155.56;;;13.62;100.00
71638;BME280;59485;43.542;-5.676;2023-04-20T08:36:08;101130.72;;;13.55;100.00
71638;BME280;59485;43.542;-5.676;2023-04-20T08:38:33;101150.56;;;13.78;100.00
71638;BME280;59485;43.542;-5.676;2023-04-20T08:40:59;101150.03;;;13.89;100.00
71638;BME280;59485;43.542;-5.676;2023-04-20T08:43:25;101148.88;;;14.12;100.00
71638;BME280;59485;43.542;-5.676;2023-04-20T08:45:51;101158.88;;;14.13;100.00
71638;BME280;59485;43.542;-5.676;2023-04-20T08:48:21;101155.88;;;14.14;100.00
71638;BME280;59485;43.542;-5.676;2023-04-20T08:50:48;101135.09;;;14.12;100.00
71638;BME280;59485;43.542;-5.676;2023-04-20T08:53:14;101143.63;;;14.23;100.00
71638;BME280;59485;43.542;-5.676;2023-04-20T08:55:40;101150.41;;;14.21;100.00
71638;BME280;59485;43.542;-5.676;2023-04-20T08:58:05;101157.47;;;14.30;100.00
71638;BME280;59485;43.542;-5.676;2023-04-20T09:00:31;101147.22;;;14.24;100.00
71638;BME280;59485;43.542;-5.676;2023-04-20T09:02:56;101138.38;;;14.35;100.00
71638;BME280;59485;43.542;-5.676;2023-04-20T09:05:28;101166.00;;;14.42;100.00
71638;BME280;59485;43.542;-5.676;2023-04-20T09:07:56;101139.22;;;14.29;100.00
71638;BME280;59485;43.542;-5.676;2023-04-20T09:10:22;101151.63;;;14.53;100.00
71638;BME280;59485;43.542;-5.676;2023-04-20T09:12:48;101150.38;;;14.62;100.00
71638;BME280;59485;43.542;-5.676;2023-04-20T09:15:28;101132.56;;;14.58;100.00
71638;BME280;59485;43.542;-5.676;2023-04-20T09:17:54;101143.41;;;14.79;100.00
71638;BME280;59485;43.542;-5.676;2023-04-20T09:20:30;101151.09;;;14.90;100.00
71638;BME280;59485;43.542;-5.676;2023-04-20T09:22:56;101142.38;;;14.80;100.00
71638;BME280;59485;43.542;-5.676;2023-04-20T09:25:23;101143.22;;;14.74;100.00
71638;BME280;59485;43.542;-5.676;2023-04-20T09:27:58;101133.88;;;14.75;100.00
71638;BME280;59485;43.542;-5.676;2023-04-20T09:30:24;101134.72;;;14.82;100.00
71638;BME280;59485;43.542;-5.676;2023-04-20T09:33:04;101128.38;;;14.88;100.00
71638;BME280;59485;43.542;-5.676;2023-04-20T09:35:29;101121.38;;;15.06;100.00
71638;BME280;59485;43.542;-5.676;2023-04-20T09:37:55;101131.13;;;14.95;100.00
71638;BME280;59485;43.542;-5.676;2023-04-20T09:40:23;101128.16;;;14.90;100.00
71638;BME280;59485;43.542;-5.676;2023-04-20T09:42:50;101109.66;;;14.77;100.00
71638;BME280;59485;43.542;-5.676;2023-04-20T09:45:17;101113.94;;;14.99;100.00
71638;BME280;59485;43.542;-5.676;2023-04-20T09:47:43;101108.22;;;15.08;100.00
71638;BME280;59485;43.542;-5.676;2023-04-20T09:50:10;101125.00;;;15.19;100.00
71638;BME280;59485;43.542;-5.676;2023-04-20T09:52:36;101113.50;;;15.22;100.00
71638;BME280;59485;43.542;-5.676;2023-04-20T09:55:04;101118.19;;;15.42;100.00
71638;BME280;59485;43.542;-5.676;2023-04-20T09:57:31;101103.94;;;15.45;100.00
71638;BME280;59485;43.542;-5.676;2023-04-20T09:59:57;101108.88;;;15.56;100.00
71638;BME280;59485;43.542;-5.676;2023-04-20T10:02:24;101100.13;;;15.65;100.00
71638;BME280;59485;43.542;-5.676;2023-04-20T10:04:54;101089.91;;;15.72;100.00
71638;BME280;59485;43.542;-5.676;2023-04-20T10:07:27;101085.56;;;15.96;100.00
71638;BME280;59485;43.542;-5.676;2023-04-20T10:10:09;101099.78;;;16.06;100.00
71638;BME280;59485;43.542;-5.676;2023-04-20T10:12:59;101092.09;;;16.15;100.00
71638;BME280;59485;43.542;-5.676;2023-04-20T10:15:38;101066.78;;;16.18;100.00
71638;BME280;59485;43.542;-5.676;2023-04-20T10:18:23;101031.53;;;16.00;100.00
71638;BME280;59485;43.542;-5.676;2023-04-20T10:20:49;101076.28;;;16.29;100.00
71638;BME280;59485;43.542;-5.676;2023-04-20T10:23:16;101067.28;;;16.40;100.00
71638;BME280;59485;43.542;-5.676;2023-04-20T10:25:57;101054.94;;;16.42;100.00
71638;BME280;59485;43.542;-5.676;2023-04-20T10:28:23;101058.59;;;16.30;100.00
71638;BME280;59485;43.542;-5.676;2023-04-20T10:30:50;101051.53;;;16.40;100.00
71638;BME280;59485;43.542;-5.676;2023-04-20T10:33:16;101009.06;;;16.28;100.00
71638;BME280;59485;43.542;-5.676;2023-04-20T10:35:46;101047.25;;;16.44;100.00
71638;BME280;59485;43.542;-5.676;2023-04-20T10:38:12;101031.03;;;16.55;100.00
71638;BME280;59485;43.542;-5.676;2023-04-20T10:40:38;101026.00;;;16.38;100.00
71638;BME280;59485;43.542;-5.676;2023-04-20T10:45:35;100969.13;;;16.18;100.00
71638;BME280;59485;43.542;-5.676;2023-04-20T10:48:09;100973.97;;;16.22;100.00
71638;BME280;59485;43.542;-5.676;2023-04-20T10:50:35;101016.09;;;16.62;100.00
71638;BME280;59485;43.542;-5.676;2023-04-20T10:53:01;101016.88;;;16.69;100.00
71638;BME280;59485;43.542;-5.676;2023-04-20T10:55:28;101012.81;;;16.72;100.00
71638;BME280;59485;43.542;-5.676;2023-04-20T10:57:53;100978.94;;;16.45;100.00
71638;BME280;59485;43.542;-5.676;2023-04-20T11:00:26;100973.97;;;16.54;100.00
71638;BME280;59485;43.542;-5.676;2023-04-20T11:02:54;101000.72;;;16.60;100.00
71638;BME280;59485;43.542;-5.676;2023-04-20T11:05:25;100983.16;;;16.47;100.00
71638;BME280;59485;43.542;-5.676;2023-04-20T11:07:52;101008.38;;;16.64;100.00
71638;BME280;59485;43.542;-5.676;2023-04-20T11:10:21;100998.81;;;16.60;100.00
71638;BME280;59485;43.542;-5.676;2023-04-20T11:12:47;101000.97;;;16.58;100.00
71638;BME280;59485;43.542;-5.676;2023-04-20T11:15:13;100981.91;;;16.43;100.00
71638;BME280;59485;43.542;-5.676;2023-04-20T11:17:39;100980.00;;;16.44;100.00
71638;BME280;59485;43.542;-5.676;2023-04-20T11:20:12;100986.81;;;16.41;100.00
71638;BME280;59485;43.542;-5.676;2023-04-20T11:22:40;100994.94;;;16.36;100.00
71638;BME280;59485;43.542;-5.676;2023-04-20T11:27:42;100940.69;;;16.04;100.00
71638;BME280;59485;43.542;-5.676;2023-04-20T11:30:08;100991.34;;;16.36;100.00
71638;BME280;59485;43.542;-5.676;2023-04-20T11:32:34;100990.59;;;16.47;100.00
71638;BME280;59485;43.542;-5.676;2023-04-20T11:35:06;100972.31;;;16.46;100.00
71638;BME280;59485;43.542;-5.676;2023-04-20T11:37:33;100995.59;;;16.32;100.00
71638;BME280;59485;43.542;-5.676;2023-04-20T11:40:03;100999.56;;;16.11;100.00
71638;BME280;59485;43.542;-5.676;2023-04-20T11:42:31;100941.69;;;15.78;100.00
71638;BME280;59485;43.542;-5.676;2023-04-20T11:44:58;100948.22;;;15.90;100.00
71638;BME280;59485;43.542;-5.676;2023-04-20T11:47:23;100961.94;;;16.03;100.00
71638;BME280;59485;43.542;-5.676;2023-04-20T11:49:49;100940.13;;;15.89;100.00
71638;BME280;59485;43.542;-5.676;2023-04-20T11:52:15;100986.13;;;16.14;100.00
71638;BME280;59485;43.542;-5.676;2023-04-20T11:54:40;100966.63;;;16.03;100.00
71638;BME280;59485;43.542;-5.676;2023-04-20T11:57:06;100974.16;;;15.89;100.00
71638;BME280;59485;43.542;-5.676;2023-04-20T11:59:32;100956.63;;;15.64;100.00
71638;BME280;59485;43.542;-5.676;2023-04-20T12:01:57;100969.41;;;15.52;100.00
71638;BME280;59485;43.542;-5.676;2023-04-20T12:04:25;100919.59;;;15.20;100.00
71638;BME280;59485;43.542;-5.676;2023-04-20T12:06:51;100971.28;;;15.71;100.00
71638;BME280;59485;43.542;-5.676;2023-04-20T12:09:19;100965.53;;;15.66;100.00
71638;BME280;59485;43.542;-5.676;2023-04-20T12:11:50;100977.09;;;15.94;100.00
71638;BME280;59485;43.542;-5.676;2023-04-20T12:14:25;100905.00;;;15.58;100.00
71638;BME280;59485;43.542;-5.676;2023-04-20T12:17:03;100946.81;;;15.68;100.00
71638;BME280;59485;43.542;-5.676;2023-04-20T12:19:29;100936.91;;;15.54;100.00
71638;BME280;59485;43.542;-5.676;2023-04-20T12:21:56;100906.75;;;15.46;100.00
71638;BME280;59485;43.542;-5.676;2023-04-20T12:24:28;100949.66;;;15.55;100.00
71638;BME280;59485;43.542;-5.676;2023-04-20T12:26:53;100949.91;;;15.33;100.00
71638;BME280;59485;43.542;-5.676;2023-04-20T12:29:28;100939.34;;;15.17;100.00
71638;BME280;59485;43.542;-5.676;2023-04-20T12:31:58;100919.84;;;14.99;100.00